Terminal Aerodrome Forecast
Issued by NWS Dallas/Fort Worth, TX

Home | Current Version | Previous Version | Text Only | Print | Product List | Glossary On
Versions: 1 2 3 4 5 6 7 8 9 10 11 12 13 14 15 16 17 18 19 20 21 22 23 24 25 26 27 28 29 30 31 32
806
FTUS44 KFWD 061730
TAFACT
TAF
KACT 061730Z 0618/0718 35009KT P6SM SCT006 OVC015
      TEMPO 0618/0620 3SM BR OVC006
     FM062000 36012KT P6SM OVC022
     FM070100 01007KT P6SM SCT025 BKN035
     FM070800 36006KT P6SM BKN025=

USA.gov is the U.S. government's official web portal to all federal, state and local government web resources and services.